Time;durP1;ratioP1;P1;durP2;ratioP2;P2;SDS_P1;SDS_P2;PMS_P1;PMS_P2;Temp;Humidity;BMP_temperature;BMP_pressure;BME280_temperature;BME280_humidity;BME280_pressure;Samples;Min_cycle;Max_cycle;Signal;HPM_P1;HPM_P2
2021/05/17 00:00:37;;;;;;;0.50;0.40;;;11.70;1.00;;;;;;4972960;28;20023;-72
2021/05/17 00:03:03;;;;;;;2.38;0.50;;;11.80;1.00;;;;;;4972898;28;20031;-72
2021/05/17 00:05:30;;;;;;;0.65;0.50;;;11.80;1.00;;;;;;4972007;28;20019;-74
2021/05/17 00:07:56;;;;;;;1.30;0.40;;;11.80;1.00;;;;;;4971454;28;20046;-72
2021/05/17 00:10:23;;;;;;;2.92;0.60;;;11.80;1.00;;;;;;4972113;28;20062;-74
2021/05/17 00:12:48;;;;;;;1.77;0.35;;;11.80;1.00;;;;;;4977099;28;20101;-73
2021/05/17 00:15:16;;;;;;;0.40;0.35;;;11.80;1.00;;;;;;4972016;28;20055;-74
2021/05/17 00:17:43;;;;;;;0.50;0.50;;;11.70;1.00;;;;;;4975362;28;20153;-73
2021/05/17 00:20:11;;;;;;;0.68;0.43;;;11.70;1.00;;;;;;4976486;28;20069;-74
2021/05/17 00:22:37;;;;;;;1.02;0.45;;;11.60;1.00;;;;;;4977327;28;20423;-73
2021/05/17 00:25:03;;;;;;;2.40;0.50;;;11.60;1.00;;;;;;4976685;28;20027;-73
2021/05/17 00:27:29;;;;;;;0.57;0.30;;;11.60;1.00;;;;;;4976953;28;20023;-74
2021/05/17 00:29:55;;;;;;;2.08;0.40;;;11.60;1.00;;;;;;4976637;28;20029;-73
2021/05/17 00:32:21;;;;;;;0.93;0.50;;;11.60;1.00;;;;;;4978085;28;20031;-72
2021/05/17 00:34:47;;;;;;;1.48;0.50;;;11.60;1.00;;;;;;4976810;28;20038;-73
2021/05/17 00:37:13;;;;;;;0.98;0.40;;;11.60;1.00;;;;;;4976775;28;20073;-73
2021/05/17 00:39:41;;;;;;;1.60;0.40;;;11.50;1.00;;;;;;4976745;28;20398;-72
2021/05/17 00:42:07;;;;;;;0.70;0.40;;;11.50;1.00;;;;;;4976558;28;20483;-71
2021/05/17 00:44:37;;;;;;;0.73;0.38;;;11.50;1.00;;;;;;4976676;28;20487;-73
2021/05/17 00:47:03;;;;;;;0.77;0.50;;;11.50;1.00;;;;;;4975594;28;20023;-72
2021/05/17 00:49:29;;;;;;;0.65;0.43;;;11.60;1.00;;;;;;4976054;28;20026;-72
2021/05/17 00:51:55;;;;;;;0.95;0.52;;;11.50;1.00;;;;;;4976311;28;20380;-73
2021/05/17 00:57:06;;;;;;;2.33;0.52;;;11.50;1.00;;;;;;5283844;23;19926;-73
2021/05/17 00:59:32;;;;;;;0.55;0.40;;;11.50;1.00;;;;;;4955362;28;20038;-73
2021/05/17 01:01:59;;;;;;;1.80;0.38;;;11.40;1.00;;;;;;4956756;28;20059;-73
2021/05/17 01:04:25;;;;;;;1.20;0.50;;;11.50;1.00;;;;;;4976870;28;20093;-71
2021/05/17 01:06:52;;;;;;;1.35;0.40;;;11.40;1.00;;;;;;4959835;28;20027;-73
2021/05/17 01:09:18;;;;;;;0.47;0.47;;;11.40;1.00;;;;;;4955248;28;20494;-73
2021/05/17 01:11:44;;;;;;;1.15;0.30;;;11.50;1.00;;;;;;4957068;28;20019;-74
2021/05/17 01:14:11;;;;;;;0.80;0.50;;;11.40;1.00;;;;;;4954468;28;20035;-72
2021/05/17 01:16:37;;;;;;;0.57;0.40;;;11.40;1.00;;;;;;4975572;23;21183;-74
2021/05/17 01:19:09;;;;;;;0.68;0.40;;;11.30;1.00;;;;;;4989731;28;20037;-74
2021/05/17 01:21:38;;;;;;;0.77;0.32;;;11.30;1.00;;;;;;4993286;28;20019;-74
2021/05/17 01:24:05;;;;;;;1.35;0.60;;;11.30;1.00;;;;;;4993954;28;20124;-74
2021/05/17 01:26:33;;;;;;;1.63;0.38;;;11.20;1.00;;;;;;5005787;23;20051;-73
2021/05/17 01:29:02;;;;;;;1.42;0.50;;;11.20;1.00;;;;;;5009879;28;20375;-76
2021/05/17 01:31:28;;;;;;;2.05;0.55;;;11.20;1.00;;;;;;5000534;28;20026;-73
2021/05/17 01:33:54;;;;;;;0.77;0.35;;;11.10;1.00;;;;;;4997995;28;20030;-74
2021/05/17 01:36:20;;;;;;;0.45;0.30;;;11.10;1.00;;;;;;4996664;28;20027;-76
2021/05/17 01:38:54;;;;;;;1.45;0.40;;;11.00;1.00;;;;;;5008320;28;20098;-76
2021/05/17 01:41:22;;;;;;;0.65;0.30;;;11.00;1.00;;;;;;5011664;28;20102;-75
2021/05/17 01:43:54;;;;;;;0.45;0.32;;;10.90;1.00;;;;;;5010990;28;20033;-74
2021/05/17 01:46:24;;;;;;;1.08;0.50;;;10.90;1.00;;;;;;5009893;28;20034;-74
2021/05/17 01:48:50;;;;;;;0.65;0.50;;;10.90;1.00;;;;;;5004012;28;20069;-75
2021/05/17 01:51:19;;;;;;;0.68;0.40;;;10.90;1.00;;;;;;4999614;28;20026;-77
2021/05/17 01:53:46;;;;;;;1.48;0.40;;;10.80;1.00;;;;;;5007386;28;20057;-76
2021/05/17 01:56:14;;;;;;;0.70;0.70;;;10.80;1.00;;;;;;5013812;28;20026;-75
2021/05/17 01:58:40;;;;;;;0.75;0.35;;;10.80;1.00;;;;;;5014347;28;20027;-75
2021/05/17 02:01:14;;;;;;;1.38;0.30;;;10.80;1.00;;;;;;5009937;28;20034;-74
2021/05/17 02:03:42;;;;;;;1.65;0.82;;;10.80;1.00;;;;;;5004852;28;20026;-76
2021/05/17 02:06:09;;;;;;;0.95;0.40;;;10.80;1.00;;;;;;5006690;28;20109;-76
2021/05/17 02:08:43;;;;;;;1.27;0.40;;;10.80;1.00;;;;;;5012925;28;20042;-74
2021/05/17 02:11:13;;;;;;;0.73;0.40;;;10.90;1.00;;;;;;5014162;28;20109;-75
2021/05/17 02:13:40;;;;;;;0.40;0.40;;;10.90;1.00;;;;;;4995761;28;20092;-75
2021/05/17 02:16:07;;;;;;;1.27;0.32;;;10.80;1.00;;;;;;4995045;28;20041;-76
2021/05/17 02:18:37;;;;;;;0.98;0.40;;;10.80;1.00;;;;;;4994544;28;20093;-76
2021/05/17 02:21:03;;;;;;;1.75;0.50;;;10.90;1.00;;;;;;4996126;28;20022;-76
2021/05/17 02:23:30;;;;;;;2.20;1.00;;;11.00;1.00;;;;;;4995776;28;20102;-76
2021/05/17 02:25:56;;;;;;;1.40;0.40;;;11.00;1.00;;;;;;4994993;28;20034;-76
2021/05/17 02:28:21;;;;;;;0.90;0.38;;;11.00;1.00;;;;;;4995175;28;20597;-77
2021/05/17 02:30:47;;;;;;;2.22;0.50;;;11.10;1.00;;;;;;4996054;28;20164;-77
2021/05/17 02:33:15;;;;;;;1.65;0.50;;;11.20;1.00;;;;;;4994902;28;20034;-76
2021/05/17 02:35:41;;;;;;;1.20;0.40;;;11.20;1.00;;;;;;4995524;28;20030;-77
2021/05/17 02:38:08;;;;;;;0.63;0.40;;;11.10;1.00;;;;;;4975933;28;20030;-76
2021/05/17 02:40:34;;;;;;;0.50;0.30;;;11.10;1.00;;;;;;5011989;28;20034;-77
2021/05/17 02:43:03;;;;;;;0.93;0.40;;;11.10;1.00;;;;;;4997149;28;20093;-74
2021/05/17 02:45:29;;;;;;;0.20;0.20;;;11.10;1.00;;;;;;4996182;28;20057;-75
2021/05/17 02:47:57;;;;;;;2.33;0.40;;;11.10;1.00;;;;;;4998329;28;20093;-77
2021/05/17 02:50:36;;;;;;;1.95;0.40;;;11.10;1.00;;;;;;5012709;28;20026;-76
2021/05/17 02:53:40;;;;;;;0.88;0.32;;;11.10;1.00;;;;;;5006217;28;20045;-76
2021/05/17 02:56:11;;;;;;;1.42;0.30;;;11.10;1.00;;;;;;5008991;28;20026;-75
2021/05/17 02:58:40;;;;;;;0.65;0.40;;;11.10;1.00;;;;;;5013862;28;20071;-74
2021/05/17 03:01:08;;;;;;;0.70;0.25;;;11.20;1.00;;;;;;5008866;28;20018;-77
2021/05/17 03:03:46;;;;;;;1.17;0.30;;;11.10;1.00;;;;;;5013958;28;20022;-76
2021/05/17 03:06:17;;;;;;;0.93;0.47;;;11.10;1.00;;;;;;4995159;28;20027;-76
2021/05/17 03:08:59;;;;;;;3.42;0.57;;;11.00;1.00;;;;;;4997489;28;20037;-76
2021/05/17 03:11:26;;;;;;;1.20;0.45;;;11.00;1.00;;;;;;4991439;28;20022;-77
2021/05/17 03:13:54;;;;;;;4.22;0.50;;;11.00;1.00;;;;;;4996106;28;20033;-75
2021/05/17 03:16:21;;;;;;;0.40;0.35;;;11.00;1.00;;;;;;5002127;28;20022;-77
2021/05/17 03:18:48;;;;;;;3.13;0.40;;;11.00;1.00;;;;;;5011157;28;20038;-75
2021/05/17 03:21:16;;;;;;;0.65;0.40;;;11.00;1.00;;;;;;5001793;28;20031;-77
2021/05/17 03:23:42;;;;;;;0.85;0.30;;;11.00;1.00;;;;;;5001370;28;20034;-76
2021/05/17 03:26:09;;;;;;;0.68;0.32;;;11.10;1.00;;;;;;5000892;28;20106;-77
2021/05/17 03:28:35;;;;;;;0.90;0.40;;;11.10;1.00;;;;;;5001620;28;20518;-75
2021/05/17 03:31:01;;;;;;;0.82;0.50;;;11.10;1.00;;;;;;5015752;28;20093;-75
2021/05/17 03:33:26;;;;;;;1.00;0.40;;;11.00;1.00;;;;;;4995109;28;20394;-76
2021/05/17 03:35:52;;;;;;;0.30;0.30;;;11.00;1.00;;;;;;4996248;28;20034;-75
2021/05/17 03:38:17;;;;;;;3.25;0.30;;;10.90;1.00;;;;;;4995467;28;20042;-76
2021/05/17 03:40:43;;;;;;;0.55;0.30;;;10.90;1.00;;;;;;4996936;28;20375;-76
2021/05/17 03:43:08;;;;;;;2.20;0.47;;;10.90;1.00;;;;;;4994804;28;20027;-75
2021/05/17 03:45:34;;;;;;;2.45;0.35;;;10.80;1.00;;;;;;4995209;28;20053;-75
2021/05/17 03:48:00;;;;;;;1.17;0.40;;;10.90;1.00;;;;;;4996107;28;20022;-75
2021/05/17 03:50:26;;;;;;;0.52;0.50;;;10.90;1.00;;;;;;4995604;28;20034;-77
2021/05/17 03:52:52;;;;;;;1.38;0.52;;;10.90;1.00;;;;;;4996669;28;20413;-76
2021/05/17 03:55:17;;;;;;;2.65;0.40;;;10.90;1.00;;;;;;4999999;28;20053;-75
2021/05/17 03:57:43;;;;;;;0.40;0.30;;;10.80;1.00;;;;;;5023670;28;20023;-75
2021/05/17 04:00:09;;;;;;;0.40;0.40;;;10.90;1.00;;;;;;5007074;28;20481;-77
2021/05/17 04:02:35;;;;;;;0.20;0.20;;;10.90;1.00;;;;;;4998617;28;20077;-76
2021/05/17 04:05:25;;;;;;;0.73;0.47;;;10.80;1.00;;;;;;4991080;28;20031;-75
2021/05/17 04:08:09;;;;;;;0.47;0.43;;;10.90;1.00;;;;;;4995852;28;20018;-76
2021/05/17 04:15:45;;;;;;;0.77;0.38;;;11.00;1.00;;;;;;4994947;28;20105;-76
2021/05/17 04:18:11;;;;;;;0.60;0.40;;;11.00;1.00;;;;;;5007524;28;20098;-74
2021/05/17 04:20:38;;;;;;;1.13;0.32;;;11.00;1.00;;;;;;4996878;28;20432;-76
2021/05/17 04:23:04;;;;;;;0.52;0.30;;;11.00;1.00;;;;;;4994300;28;20014;-76
2021/05/17 04:25:29;;;;;;;1.75;0.30;;;11.20;1.00;;;;;;4992658;28;20057;-75
2021/05/17 04:27:55;;;;;;;2.47;0.40;;;11.10;1.00;;;;;;4991964;28;20026;-76
2021/05/17 04:30:21;;;;;;;1.40;0.90;;;11.20;1.00;;;;;;5008559;28;20038;-75
2021/05/17 04:32:47;;;;;;;1.27;0.50;;;11.20;1.00;;;;;;4993369;28;20568;-76
2021/05/17 04:35:13;;;;;;;2.17;0.50;;;11.20;1.00;;;;;;4993702;28;20030;-75
2021/05/17 04:37:39;;;;;;;0.80;0.40;;;11.40;1.00;;;;;;4994974;28;20409;-76
2021/05/17 04:40:06;;;;;;;1.00;0.70;;;11.50;99.90;;;;;;4992717;28;20026;-77
2021/05/17 04:42:32;;;;;;;1.38;0.50;;;11.60;99.90;;;;;;4994008;28;20034;-76
2021/05/17 04:44:58;;;;;;;1.85;0.60;;;11.70;99.90;;;;;;4993154;28;20153;-76
2021/05/17 04:47:24;;;;;;;1.20;0.40;;;11.70;99.90;;;;;;4993217;28;20019;-77
2021/05/17 04:49:49;;;;;;;0.10;0.10;;;11.80;99.90;;;;;;4991968;28;20019;-76
2021/05/17 04:52:15;;;;;;;1.45;0.40;;;12.10;99.90;;;;;;4992720;28;20031;-76
2021/05/17 04:54:40;;;;;;;1.60;0.40;;;12.20;99.90;;;;;;4992880;28;20394;-76
2021/05/17 04:57:06;;;;;;;2.90;0.47;;;12.30;99.90;;;;;;4994296;28;20037;-75
2021/05/17 04:59:32;;;;;;;0.68;0.50;;;12.50;99.90;;;;;;5012194;28;20053;-76
2021/05/17 05:01:58;;;;;;;1.02;0.60;;;13.30;99.90;;;;;;5004452;28;20037;-76
2021/05/17 05:04:23;;;;;;;2.20;0.50;;;13.60;99.90;;;;;;5006562;28;20022;-75
2021/05/17 05:06:49;;;;;;;1.05;0.45;;;13.30;99.90;;;;;;5006319;28;20026;-75
2021/05/17 05:09:14;;;;;;;2.35;0.50;;;13.10;99.90;;;;;;5006146;28;20057;-76
2021/05/17 05:11:40;;;;;;;2.75;0.40;;;13.30;99.90;;;;;;5025595;28;20030;-75
2021/05/17 05:14:05;;;;;;;1.55;1.00;;;13.90;99.90;;;;;;5008851;28;20069;-74
2021/05/17 05:16:31;;;;;;;0.47;0.30;;;14.50;90.10;;;;;;5021985;28;20038;-74
2021/05/17 05:18:57;;;;;;;0.50;0.20;;;14.60;17.40;;;;;;5021905;28;20035;-75
2021/05/17 05:21:22;;;;;;;1.85;0.30;;;14.80;1.00;;;;;;5004789;28;20046;-76
2021/05/17 05:23:48;;;;;;;0.60;0.40;;;14.80;1.00;;;;;;5014879;28;20026;-76
2021/05/17 05:26:40;;;;;;;1.95;0.43;;;14.80;1.00;;;;;;4996339;28;20042;-76
2021/05/17 05:34:06;;;;;;;0.73;0.35;;;15.00;99.90;;;;;;5005334;28;20662;-75
2021/05/17 05:36:32;;;;;;;1.02;0.45;;;14.50;99.90;;;;;;5007576;28;20038;-75
2021/05/17 05:38:58;;;;;;;1.08;0.45;;;14.10;1.00;;;;;;5003505;28;20562;-74
2021/05/17 05:41:23;;;;;;;1.08;0.30;;;13.70;13.40;;;;;;5002626;28;20540;-77
2021/05/17 05:43:49;;;;;;;2.25;0.40;;;13.90;50.40;;;;;;4997544;28;20022;-76
2021/05/17 05:46:15;;;;;;;1.58;0.40;;;14.20;1.00;;;;;;4996471;28;20040;-76
2021/05/17 05:48:49;;;;;;;1.13;0.30;;;14.60;1.00;;;;;;4996439;28;20026;-75
2021/05/17 05:51:23;;;;;;;1.75;0.30;;;15.00;99.90;;;;;;4997250;28;20089;-76
2021/05/17 05:53:49;;;;;;;0.40;0.20;;;15.10;99.90;;;;;;5000014;28;20078;-77
2021/05/17 05:56:16;;;;;;;2.00;0.40;;;15.00;99.90;;;;;;5004847;28;20024;-77
2021/05/17 05:58:42;;;;;;;2.47;0.40;;;14.50;99.90;;;;;;5010287;28;20038;-75
2021/05/17 06:01:09;;;;;;;1.58;0.55;;;14.30;99.90;;;;;;5018456;28;20045;-77
2021/05/17 06:03:35;;;;;;;0.55;0.20;;;13.90;1.00;;;;;;5019514;28;20011;-75
2021/05/17 06:06:01;;;;;;;1.52;0.40;;;13.60;1.00;;;;;;5020276;28;20022;-76
2021/05/17 06:08:27;;;;;;;1.33;0.40;;;13.40;11.30;;;;;;5035436;28;20102;-75
2021/05/17 06:10:53;;;;;;;1.55;0.40;;;13.20;48.90;;;;;;5020280;28;20015;-74
2021/05/17 06:13:19;;;;;;;0.75;0.30;;;13.10;93.40;;;;;;5020139;28;20017;-75
2021/05/17 06:15:46;;;;;;;0.90;0.30;;;13.00;99.90;;;;;;5019476;28;20475;-75
2021/05/17 06:18:13;;;;;;;2.25;0.30;;;12.90;99.90;;;;;;5018816;28;20022;-76
2021/05/17 06:20:39;;;;;;;1.00;0.40;;;12.70;99.90;;;;;;5008640;28;20026;-76
2021/05/17 06:23:07;;;;;;;0.70;0.30;;;12.80;99.90;;;;;;5004788;28;20034;-76
2021/05/17 06:25:33;;;;;;;0.98;0.40;;;12.80;99.90;;;;;;5016811;28;20057;-74
2021/05/17 06:27:59;;;;;;;0.60;0.30;;;12.70;99.90;;;;;;5018159;28;20019;-74
2021/05/17 06:30:26;;;;;;;1.10;0.30;;;12.70;99.90;;;;;;5018526;28;20018;-74
2021/05/17 06:32:52;;;;;;;2.80;0.43;;;12.70;99.90;;;;;;5014998;28;20086;-76
2021/05/17 06:35:24;;;;;;;2.38;0.40;;;12.70;99.90;;;;;;5018215;28;20033;-76
2021/05/17 06:37:50;;;;;;;0.82;0.50;;;12.70;99.90;;;;;;5018387;28;20029;-76
2021/05/17 06:40:16;;;;;;;0.50;0.38;;;12.70;99.90;;;;;;5018798;28;20025;-75
2021/05/17 06:42:42;;;;;;;1.05;0.40;;;12.90;99.90;;;;;;5017383;28;20034;-74
2021/05/17 06:45:08;;;;;;;3.28;0.50;;;13.00;99.90;;;;;;4999963;28;20065;-74
2021/05/17 06:47:35;;;;;;;15.07;3.80;;;13.10;99.90;;;;;;4996121;28;20030;-74
2021/05/17 06:50:03;;;;;;;5.90;1.48;;;13.20;99.90;;;;;;4995865;28;20026;-74
2021/05/17 06:52:28;;;;;;;4.78;1.45;;;13.50;99.90;;;;;;4996334;28;20026;-74
2021/05/17 06:55:01;;;;;;;1.98;0.43;;;13.70;82.40;;;;;;4995867;28;20029;-73
2021/05/17 07:00:14;;;;;;;3.05;0.60;;;14.10;35.80;;;;;;5001202;28;20064;-77
2021/05/17 07:02:44;;;;;;;5.50;1.20;;;14.60;1.00;;;;;;5017450;28;20038;-74
2021/05/17 07:05:10;;;;;;;11.07;2.75;;;14.60;1.00;;;;;;5018136;28;20018;-75
2021/05/17 07:12:51;;;;;;;1.55;0.93;;;14.30;1.00;;;;;;4998794;28;20025;-77
2021/05/17 07:15:16;;;;;;;0.85;0.20;;;14.30;1.00;;;;;;5016969;28;20030;-76
2021/05/17 07:17:44;;;;;;;1.02;0.50;;;13.90;1.00;;;;;;5017939;28;20035;-76
2021/05/17 07:20:12;;;;;;;0.63;0.60;;;13.90;12.70;;;;;;5017182;28;20101;-76
2021/05/17 07:25:21;;;;;;;0.82;0.30;;;13.70;95.50;;;;;;5018158;28;20041;-76
2021/05/17 07:27:47;;;;;;;0.65;0.43;;;13.90;78.60;;;;;;5017293;28;20030;-75
2021/05/17 07:30:13;;;;;;;0.50;0.40;;;13.90;59.30;;;;;;5017293;28;20014;-76
2021/05/17 07:32:39;;;;;;;0.70;0.40;;;14.20;41.00;;;;;;5016865;28;20034;-76
2021/05/17 07:35:05;;;;;;;1.08;0.30;;;14.40;15.20;;;;;;5016396;28;20094;-76
2021/05/17 07:37:32;;;;;;;0.70;0.40;;;14.50;1.00;;;;;;5013259;28;20035;-75
2021/05/17 07:39:57;;;;;;;0.90;0.50;;;14.70;1.00;;;;;;5001504;28;20038;-75
2021/05/17 07:42:23;;;;;;;1.42;0.50;;;14.90;1.00;;;;;;5000829;28;20039;-74
2021/05/17 07:44:49;;;;;;;0.77;0.40;;;14.90;99.90;;;;;;4999889;28;20022;-75
2021/05/17 07:47:15;;;;;;;3.33;0.70;;;14.80;99.90;;;;;;4991499;28;20030;-75
2021/05/17 07:49:42;;;;;;;1.48;0.60;;;15.00;99.90;;;;;;4994987;28;20033;-76
2021/05/17 07:52:09;;;;;;;0.75;0.40;;;15.30;99.90;;;;;;4997204;28;20084;-74
2021/05/17 07:54:37;;;;;;;0.60;0.40;;;15.40;99.90;;;;;;5006665;28;20054;-74
2021/05/17 07:57:04;;;;;;;0.98;0.43;;;15.20;87.70;;;;;;4995867;28;20088;-75
2021/05/17 07:59:32;;;;;;;0.60;0.30;;;15.00;45.10;;;;;;5003733;28;20022;-75
2021/05/17 08:01:58;;;;;;;0.65;0.30;;;14.80;97.40;;;;;;5003551;28;20082;-75
2021/05/17 08:04:23;;;;;;;0.52;0.35;;;15.00;64.50;;;;;;5002621;28;20026;-76
2021/05/17 08:06:50;;;;;;;0.77;0.30;;;14.80;1.00;;;;;;5001035;28;20026;-73
2021/05/17 08:09:16;;;;;;;0.52;0.40;;;14.60;56.70;;;;;;5001152;28;20030;-75
2021/05/17 08:11:43;;;;;;;1.40;0.25;;;14.70;1.00;;;;;;5001102;28;20026;-76
2021/05/17 08:14:09;;;;;;;1.25;0.30;;;14.50;1.00;;;;;;5000802;28;20071;-75
2021/05/17 08:16:35;;;;;;;0.95;0.60;;;14.50;26.10;;;;;;5000388;28;20041;-75
2021/05/17 08:19:01;;;;;;;0.65;0.43;;;14.70;99.90;;;;;;5001941;28;20173;-74
2021/05/17 08:21:27;;;;;;;0.93;0.47;;;15.10;42.10;;;;;;5000355;28;20348;-74
2021/05/17 08:23:54;;;;;;;4.05;0.50;;;15.40;1.00;;;;;;5000710;28;20030;-75
2021/05/17 08:26:20;;;;;;;0.28;0.20;;;15.70;99.90;;;;;;4995640;28;20045;-76
2021/05/17 08:28:45;;;;;;;0.50;0.30;;;15.80;99.90;;;;;;4993771;28;20031;-76
2021/05/17 08:31:14;;;;;;;0.75;0.22;;;15.70;99.90;;;;;;4995153;28;20165;-75
2021/05/17 08:33:40;;;;;;;2.20;0.50;;;15.80;1.00;;;;;;4998656;28;20100;-76
2021/05/17 08:36:06;;;;;;;0.90;0.30;;;16.00;28.50;;;;;;4997795;28;20031;-74
2021/05/17 08:38:33;;;;;;;0.73;0.30;;;15.80;99.90;;;;;;4998009;28;20063;-76
2021/05/17 08:40:58;;;;;;;0.85;0.50;;;15.60;1.00;;;;;;4996884;28;20406;-76
2021/05/17 08:43:26;;;;;;;1.85;0.60;;;16.00;99.90;;;;;;4996582;28;20037;-76
2021/05/17 08:45:51;;;;;;;1.65;0.50;;;15.90;1.00;;;;;;4997488;28;20053;-75
2021/05/17 08:48:17;;;;;;;0.68;0.20;;;15.70;1.00;;;;;;4997524;28;20030;-74
2021/05/17 08:50:43;;;;;;;0.20;0.20;;;15.50;99.90;;;;;;4997056;28;20030;-76
2021/05/17 08:53:10;;;;;;;1.27;0.30;;;15.90;99.90;;;;;;4997487;28;20022;-76
2021/05/17 08:55:36;;;;;;;1.48;0.40;;;16.20;1.00;;;;;;4997936;28;20056;-77
2021/05/17 08:58:02;;;;;;;1.05;0.40;;;16.10;1.00;;;;;;4997563;28;20038;-75
2021/05/17 09:00:28;;;;;;;0.98;0.35;;;16.20;99.90;;;;;;4998264;28;20111;-76
2021/05/17 09:02:54;;;;;;;2.05;0.40;;;16.30;1.00;;;;;;4997032;28;20034;-76
2021/05/17 09:05:24;;;;;;;1.20;0.50;;;16.20;1.00;;;;;;4995384;28;20450;-75
2021/05/17 09:07:56;;;;;;;0.60;0.40;;;16.30;99.90;;;;;;4996013;28;20494;-75
2021/05/17 09:10:25;;;;;;;1.05;0.50;;;16.80;99.90;;;;;;4995694;28;20031;-76
2021/05/17 09:13:00;;;;;;;2.92;0.40;;;16.70;99.90;;;;;;4996141;28;20053;-74
2021/05/17 09:15:32;;;;;;;1.73;0.45;;;16.80;99.90;;;;;;4996580;28;20515;-76
2021/05/17 09:18:07;;;;;;;5.07;1.00;;;16.60;99.90;;;;;;4992941;28;20470;-75
2021/05/17 09:20:40;;;;;;;1.08;0.40;;;16.40;99.90;;;;;;4990463;28;20026;-78
2021/05/17 09:23:13;;;;;;;1.67;0.40;;;16.30;25.30;;;;;;4994759;28;20019;-75
2021/05/17 09:25:59;;;;;;;1.17;0.32;;;16.20;1.00;;;;;;4997689;28;20475;-76
2021/05/17 09:28:28;;;;;;;0.60;0.28;;;15.80;1.00;;;;;;4996218;28;20117;-77
2021/05/17 09:31:02;;;;;;;0.98;0.40;;;15.50;1.00;;;;;;4996498;28;20613;-76
2021/05/17 09:33:29;;;;;;;0.90;0.40;;;15.10;99.90;;;;;;4994330;28;20034;-76
2021/05/17 09:35:54;;;;;;;0.30;0.30;;;15.50;99.90;;;;;;4997310;28;20034;-75
2021/05/17 09:38:25;;;;;;;3.40;0.40;;;15.90;59.00;;;;;;4996338;28;21322;-75
2021/05/17 09:41:05;;;;;;;1.17;0.37;;;16.40;99.90;;;;;;4997755;28;20457;-75
2021/05/17 09:43:34;;;;;;;0.75;0.30;;;16.70;99.90;;;;;;4995590;28;20053;-75
2021/05/17 09:46:01;;;;;;;0.75;0.60;;;16.90;48.90;;;;;;5000318;28;20466;-75
2021/05/17 09:48:30;;;;;;;0.30;0.25;;;16.90;1.00;;;;;;4997944;28;20050;-76
2021/05/17 09:51:08;;;;;;;0.25;0.20;;;16.80;99.90;;;;;;4997108;28;20034;-76
2021/05/17 09:53:47;;;;;;;1.17;0.30;;;16.50;99.90;;;;;;5011277;28;20084;-76
2021/05/17 09:56:19;;;;;;;1.67;0.30;;;16.50;1.00;;;;;;4995351;28;20030;-75
2021/05/17 09:58:55;;;;;;;2.95;0.40;;;16.70;99.90;;;;;;4996509;28;20022;-77
2021/05/17 10:01:28;;;;;;;1.95;0.50;;;16.80;1.00;;;;;;4996855;28;20056;-75
2021/05/17 10:04:03;;;;;;;1.27;0.30;;;16.70;93.90;;;;;;4996682;28;20104;-76
2021/05/17 10:06:28;;;;;;;1.52;0.30;;;16.40;99.90;;;;;;4998049;28;20026;-76
2021/05/17 10:08:56;;;;;;;1.05;0.40;;;16.30;99.90;;;;;;4998193;28;20033;-77
2021/05/17 10:11:24;;;;;;;1.45;0.40;;;16.10;1.00;;;;;;4997986;28;20130;-74
2021/05/17 10:13:50;;;;;;;0.75;0.45;;;16.10;79.00;;;;;;4998583;28;20043;-78
2021/05/17 10:16:18;;;;;;;1.27;0.35;;;16.40;88.20;;;;;;4999214;28;20030;-75
2021/05/17 10:18:44;;;;;;;0.30;0.30;;;16.40;1.00;;;;;;5003583;28;20082;-74
2021/05/17 10:21:12;;;;;;;0.57;0.25;;;16.70;99.90;;;;;;5007673;28;20586;-74
2021/05/17 10:23:41;;;;;;;1.45;0.40;;;17.20;1.00;;;;;;4999080;28;20777;-78
2021/05/17 10:26:16;;;;;;;0.25;0.20;;;17.60;1.00;;;;;;5020474;28;20085;-79
2021/05/17 10:28:54;;;;;;;0.93;0.40;;;17.80;1.00;;;;;;5018904;28;20022;-79
2021/05/17 10:31:21;;;;;;;3.72;0.30;;;17.90;99.90;;;;;;5005667;28;20026;-78
2021/05/17 10:34:04;;;;;;;0.20;0.20;;;18.10;99.90;;;;;;5002905;28;20023;-79
2021/05/17 10:36:57;;;;;;;3.60;0.60;;;17.90;99.90;;;;;;4998853;28;20046;-80
2021/05/17 10:39:30;;;;;;;1.05;0.40;;;17.50;99.90;;;;;;4997045;28;20023;-77
2021/05/17 10:48:14;;;;;;;3.50;0.47;;;16.40;1.00;;;;;;4969046;28;20053;-79
2021/05/17 10:50:52;;;;;;;2.65;0.30;;;15.90;1.00;;;;;;5002733;28;20297;-80
2021/05/17 10:53:49;;;;;;;0.90;0.40;;;15.40;99.90;;;;;;5001596;28;20033;-78
2021/05/17 10:56:35;;;;;;;1.65;0.45;;;15.40;99.90;;;;;;4998160;28;20026;-80
2021/05/17 11:01:57;;;;;;;1.83;0.52;;;15.90;1.00;;;;;;5007208;28;20029;-78
2021/05/17 11:04:30;;;;;;;0.73;0.47;;;16.20;1.00;;;;;;5000809;28;20034;-79
2021/05/17 11:07:20;;;;;;;8.07;1.02;;;16.50;99.90;;;;;;5021824;28;20026;-78
2021/05/17 11:09:56;;;;;;;1.25;0.35;;;17.10;1.00;;;;;;5019433;28;20026;-79
2021/05/17 11:12:28;;;;;;;1.67;0.43;;;17.20;8.70;;;;;;5009384;28;20030;-80
2021/05/17 11:15:06;;;;;;;0.82;0.30;;;17.60;99.90;;;;;;5005393;28;20032;-78
2021/05/17 11:17:52;;;;;;;0.95;0.40;;;18.10;67.60;;;;;;5008128;28;20045;-79
2021/05/17 11:23:05;;;;;;;1.20;0.32;;;18.10;99.90;;;;;;5013393;28;20112;-78
2021/05/17 11:26:04;;;;;;;5.43;0.88;;;17.70;1.00;;;;;;5013232;28;20033;-79
2021/05/17 11:31:05;;;;;;;3.33;0.68;;;16.70;99.90;;;;;;5014753;28;20030;-79
2021/05/17 11:33:56;;;;;;;0.80;0.40;;;16.20;99.90;;;;;;5013150;28;20117;-77
2021/05/17 11:36:28;;;;;;;0.85;0.40;;;15.60;99.90;;;;;;5028431;28;20036;-77
2021/05/17 11:39:16;;;;;;;0.28;0.20;;;15.30;99.90;;;;;;5013437;28;20084;-79
2021/05/17 11:41:54;;;;;;;2.60;0.55;;;14.80;1.00;;;;;;5012294;28;20056;-80
2021/05/17 11:44:52;;;;;;;1.00;0.57;;;14.50;36.40;;;;;;5013930;28;20015;-79
2021/05/17 11:47:24;;;;;;;0.70;0.30;;;14.40;99.90;;;;;;5013920;28;20118;-80
2021/05/17 11:49:51;;;;;;;0.10;0.10;;;14.80;99.90;;;;;;5011002;28;20046;-79
2021/05/17 11:52:20;;;;;;;0.30;0.20;;;14.90;99.90;;;;;;5014166;28;20022;-79
2021/05/17 11:55:00;;;;;;;1.85;0.55;;;15.20;99.90;;;;;;5009988;28;20038;-80
2021/05/17 11:57:27;;;;;;;1.02;0.30;;;15.40;99.90;;;;;;4997594;28;20588;-79
2021/05/17 11:59:53;;;;;;;1.02;0.40;;;15.70;56.40;;;;;;5001427;28;20506;-81
2021/05/17 12:02:19;;;;;;;0.82;0.43;;;16.00;76.30;;;;;;5002424;28;20027;-79
2021/05/17 12:04:45;;;;;;;0.60;0.30;;;16.50;1.00;;;;;;5000477;28;20037;-79
2021/05/17 12:07:15;;;;;;;0.80;0.40;;;16.60;1.00;;;;;;5006134;28;20054;-78
2021/05/17 12:09:43;;;;;;;2.13;0.38;;;16.60;97.90;;;;;;5006524;28;20508;-78
2021/05/17 12:12:26;;;;;;;0.38;0.20;;;16.30;1.00;;;;;;5004101;28;20049;-79
2021/05/17 12:14:54;;;;;;;0.35;0.20;;;16.30;99.90;;;;;;5000088;28;20482;-80
2021/05/17 12:17:32;;;;;;;0.30;0.25;;;16.10;1.00;;;;;;5018472;28;20035;-80
2021/05/17 12:20:07;;;;;;;1.02;0.40;;;16.80;99.90;;;;;;4998517;28;20026;-79
2021/05/17 12:22:36;;;;;;;0.90;0.30;;;17.10;99.90;;;;;;5002408;28;20048;-80
2021/05/17 12:25:13;;;;;;;0.43;0.28;;;17.20;1.00;;;;;;5005600;28;20036;-78
2021/05/17 12:27:40;;;;;;;0.20;0.20;;;17.40;99.90;;;;;;5004556;28;22325;-80
2021/05/17 12:30:10;;;;;;;0.25;0.20;;;17.60;1.00;;;;;;5004641;28;20057;-78
2021/05/17 12:32:39;;;;;;;0.38;0.20;;;17.90;99.90;;;;;;5002466;28;20066;-80
2021/05/17 12:35:13;;;;;;;0.30;0.10;;;18.00;83.20;;;;;;5003900;28;20110;-82
2021/05/17 12:38:21;;;;;;;0.75;0.30;;;17.60;1.00;;;;;;5007193;28;20104;-79
2021/05/17 12:40:48;;;;;;;0.20;0.20;;;18.00;1.00;;;;;;4994694;28;20026;-79
2021/05/17 12:43:19;;;;;;;0.10;0.10;;;18.70;99.90;;;;;;5003790;28;20029;-78
2021/05/17 12:45:58;;;;;;;1.35;0.20;;;18.30;99.90;;;;;;5006870;28;20026;-80
2021/05/17 12:48:48;;;;;;;0.50;0.20;;;18.10;99.90;;;;;;5017239;28;20042;-79
2021/05/17 12:51:19;;;;;;;0.13;0.10;;;18.30;99.90;;;;;;5010573;28;20135;-81
2021/05/17 12:53:48;;;;;;;0.65;0.10;;;17.70;66.20;;;;;;5003484;28;20073;-81
2021/05/17 12:56:27;;;;;;;0.25;0.20;;;17.50;99.90;;;;;;5002379;28;20027;-79
2021/05/17 12:58:53;;;;;;;0.50;0.40;;;17.70;99.90;;;;;;5001131;28;20022;-80
2021/05/17 13:01:21;;;;;;;1.67;0.20;;;17.90;99.90;;;;;;5002555;28;20455;-80
2021/05/17 13:03:52;;;;;;;0.10;0.10;;;18.10;99.90;;;;;;5004283;28;20057;-79
2021/05/17 13:06:17;;;;;;;;;;;18.00;99.90;;;;;;5005378;28;20097;-80
2021/05/17 13:08:45;;;;;;;1.73;0.20;;;17.80;99.90;;;;;;5011366;28;19928;-78
2021/05/17 13:11:32;;;;;;;0.57;0.20;;;17.80;99.90;;;;;;5017256;28;20019;-79
2021/05/17 13:14:03;;;;;;;0.50;0.40;;;17.70;99.90;;;;;;5017989;28;20050;-80
2021/05/17 13:17:00;;;;;;;0.40;0.22;;;17.90;99.90;;;;;;5012117;28;20081;-79
2021/05/17 13:31:10;;;;;;;3.20;0.20;;;18.20;1.00;;;;;;4996194;28;20091;-81
2021/05/17 13:33:42;;;;;;;0.40;0.20;;;17.90;1.00;;;;;;4997412;28;20149;-80
2021/05/17 13:36:14;;;;;;;0.20;0.20;;;17.80;1.00;;;;;;5000486;28;20031;-80
2021/05/17 13:38:46;;;;;;;2.80;0.20;;;17.80;1.00;;;;;;5017753;28;20058;-81
2021/05/17 13:41:12;;;;;;;0.30;0.20;;;17.50;12.50;;;;;;5002254;28;20108;-80
2021/05/17 13:43:38;;;;;;;0.40;0.20;;;17.40;25.40;;;;;;5003444;28;20018;-79
2021/05/17 13:46:06;;;;;;;0.20;0.20;;;17.30;84.90;;;;;;5002571;28;20027;-80
2021/05/17 13:48:31;;;;;;;0.40;0.20;;;17.30;99.90;;;;;;5001554;28;20506;-79
2021/05/17 13:50:57;;;;;;;0.40;0.40;;;17.30;53.30;;;;;;5002591;28;20035;-79
2021/05/17 13:53:23;;;;;;;0.20;0.20;;;17.80;61.10;;;;;;5002729;28;20057;-79